Main page
METAR-TAF:

METAR-TAF

Airports :

Hrodna Airport

Grodno, Belarus

latitude: 53-36-06N, longitude: 024-03-18E, elevation: 135 m

Current weather observation

The report was made 5 hours and 39 minutes ago, at 15:00 UTC
Wind 19 kt from the West with gusts up to 25 kt
Temperature 3°C
Humidity 93%
Pressure 1025 hPa
Visibility: 8000 m
Overcast at a height of 600 ft
light drizzle

METAR: UMMG 211500Z 27010G13MPS 8000 -DZ OVC006 03/02 Q1025 NOSIG RMK QBB180

Time: 23:39 (20:39 UTC)

Forecast

The report was made 6 hours and 32 minutes ago, at 14:07 UTC
Forecast valid from 21 at 15 UTC to 21 at 24 UTC
Wind 17 kt from the West with gusts up to 27 kt
Visibility: 6000 m
Overcast at a height of 600 ft
Temporary
from 21 at 15 UTC to 21 at 21 UTC
Wind 23 kt from the West with gusts up to 33 kt
Visibility: 2100 m
Overcast at a height of 400 ft
light drizzle, mist

TAF: UMMG 211407Z 2115/2124 27009G14MPS 6000 OVC006 TEMPO 2115/2121 28012G17MPS 2100 -DZ BR OVC004

Weather observations and forecasts of more than 4000 airports (METAR and TAF reports).

The available stations are represented by yellow and red dots on the map.

Hover mouse over dot to see the name of the station.

Then click to see weather observations and forecasts.

To change the map : click on the green buttons with a black cross to zoom in, on the green button with a dash to zoom out, or on the green arrows for adjacent maps.


METAR-TAF: